Time;durP1;ratioP1;P1;durP2;ratioP2;P2;SDS_P1;SDS_P2;PMS_P1;PMS_P2;Temp;Humidity;BMP_temperature;BMP_pressure;BME280_temperature;BME280_humidity;BME280_pressure;Samples;Min_cycle;Max_cycle;Signal;HPM_P1;HPM_P2
2022/01/04 00:02:10;;;;;;;1.90;0.60;;;10.90;99.90;;;;;;5099733;28;20092;-84
2022/01/04 00:04:36;;;;;;;1.38;0.47;;;10.90;99.90;;;;;;5099261;28;20028;-84
2022/01/04 00:07:01;;;;;;;1.27;0.50;;;10.90;99.90;;;;;;5099768;28;20058;-83
2022/01/04 00:09:27;;;;;;;2.13;0.70;;;10.90;99.90;;;;;;5099023;28;20023;-83
2022/01/04 00:14:18;;;;;;;3.22;0.60;;;10.90;99.90;;;;;;5117638;28;20028;-83
2022/01/04 00:16:44;;;;;;;1.45;0.63;;;10.90;99.90;;;;;;5099373;28;20096;-84
2022/01/04 00:19:10;;;;;;;2.22;0.70;;;11.00;99.90;;;;;;5099392;28;20677;-84
2022/01/04 00:21:37;;;;;;;2.65;0.63;;;10.90;99.90;;;;;;5098885;28;20106;-84
2022/01/04 00:24:02;;;;;;;0.43;0.40;;;10.90;99.90;;;;;;5098995;28;20050;-84
2022/01/04 00:26:28;;;;;;;1.33;0.55;;;10.90;99.90;;;;;;5116843;28;20032;-84
2022/01/04 00:28:54;;;;;;;2.00;0.68;;;10.90;99.90;;;;;;5117182;28;20028;-84
2022/01/04 00:31:20;;;;;;;2.50;0.70;;;10.90;99.90;;;;;;5098755;28;20089;-82
2022/01/04 00:33:45;;;;;;;1.58;0.60;;;10.90;99.90;;;;;;5099344;28;20030;-84
2022/01/04 00:36:11;;;;;;;3.10;0.50;;;10.90;99.90;;;;;;5098882;28;20024;-84
2022/01/04 00:38:37;;;;;;;2.38;0.57;;;10.90;99.90;;;;;;5098426;28;20118;-84
2022/01/04 00:41:02;;;;;;;2.83;0.50;;;10.90;99.90;;;;;;5117016;28;20024;-84
2022/01/04 00:43:28;;;;;;;0.88;0.60;;;10.90;99.90;;;;;;5116562;28;20031;-84
2022/01/04 00:45:54;;;;;;;2.85;0.60;;;10.90;99.90;;;;;;5098977;28;20126;-84
2022/01/04 00:50:46;;;;;;;1.95;0.60;;;10.90;99.90;;;;;;5116792;28;20062;-84
2022/01/04 00:53:12;;;;;;;0.95;0.50;;;10.90;99.90;;;;;;5116814;28;20020;-83
2022/01/04 00:55:38;;;;;;;1.55;0.82;;;10.90;99.90;;;;;;5098308;28;20024;-84
2022/01/04 00:58:05;;;;;;;1.83;0.65;;;10.90;99.90;;;;;;5099096;28;20031;-84
2022/01/04 01:00:31;;;;;;;2.03;0.85;;;10.90;99.90;;;;;;5098205;28;20198;-83
2022/01/04 01:02:56;;;;;;;2.83;0.73;;;10.90;99.90;;;;;;5098502;28;20384;-84
2022/01/04 01:05:24;;;;;;;1.10;0.65;;;10.90;99.90;;;;;;5098144;28;20030;-83
2022/01/04 01:07:51;;;;;;;1.35;0.70;;;10.90;99.90;;;;;;5098412;28;20055;-84
2022/01/04 01:13:01;;;;;;;2.08;0.70;;;10.90;99.90;;;;;;5116496;28;20034;-84
2022/01/04 01:15:27;;;;;;;3.63;0.82;;;10.80;99.90;;;;;;5097654;28;20118;-83
2022/01/04 01:17:52;;;;;;;1.92;0.60;;;10.80;99.90;;;;;;5098677;28;20054;-84
2022/01/04 01:20:18;;;;;;;2.53;1.52;;;10.90;99.90;;;;;;5116433;28;20046;-84
2022/01/04 01:22:44;;;;;;;2.75;0.60;;;10.90;99.90;;;;;;5097653;28;20031;-84
2022/01/04 01:25:13;;;;;;;1.20;0.63;;;10.80;99.90;;;;;;5098405;28;20027;-84
2022/01/04 01:27:39;;;;;;;1.75;0.60;;;10.80;99.90;;;;;;5115650;28;20020;-84
2022/01/04 01:30:05;;;;;;;2.58;0.60;;;10.80;99.90;;;;;;5116181;28;20072;-84
2022/01/04 01:32:31;;;;;;;2.45;0.70;;;10.80;99.90;;;;;;5097439;28;20529;-83
2022/01/04 01:34:57;;;;;;;2.72;0.55;;;10.90;99.90;;;;;;5098015;28;20028;-84
2022/01/04 01:37:23;;;;;;;3.10;0.70;;;10.80;99.90;;;;;;5098073;28;20034;-84
2022/01/04 01:39:48;;;;;;;2.47;0.57;;;10.80;99.90;;;;;;5098419;28;20024;-84
2022/01/04 01:42:14;;;;;;;2.85;0.90;;;10.80;99.90;;;;;;5115646;28;20023;-84
2022/01/04 01:44:40;;;;;;;1.70;0.63;;;10.80;99.90;;;;;;5097280;28;20039;-84
2022/01/04 01:47:06;;;;;;;2.03;0.70;;;10.80;99.90;;;;;;5096975;28;20028;-84
2022/01/04 01:49:32;;;;;;;2.15;0.55;;;10.80;99.90;;;;;;5097152;28;20517;-84
2022/01/04 01:51:58;;;;;;;2.88;0.80;;;10.80;99.90;;;;;;5097485;28;20063;-84
2022/01/04 01:54:24;;;;;;;2.50;0.82;;;10.80;99.90;;;;;;5097490;28;20027;-84
2022/01/04 01:56:50;;;;;;;1.67;0.55;;;10.80;99.90;;;;;;5097475;28;20031;-84
2022/01/04 01:59:16;;;;;;;1.00;0.60;;;10.80;99.90;;;;;;5097629;28;20087;-83
2022/01/04 02:01:42;;;;;;;2.13;0.63;;;10.80;99.90;;;;;;5115053;28;20055;-84
2022/01/04 02:04:08;;;;;;;2.90;0.63;;;10.80;99.90;;;;;;5097486;28;20020;-83
2022/01/04 02:06:34;;;;;;;2.28;0.75;;;10.80;99.90;;;;;;5114757;28;20102;-83
2022/01/04 02:09:01;;;;;;;1.85;0.70;;;10.90;99.90;;;;;;5097444;28;20084;-84
2022/01/04 02:11:30;;;;;;;1.42;0.70;;;10.90;99.90;;;;;;5096942;28;20028;-83
2022/01/04 02:13:56;;;;;;;1.95;1.08;;;10.80;99.90;;;;;;5097135;28;20075;-84
2022/01/04 02:16:26;;;;;;;1.52;0.80;;;10.90;99.90;;;;;;5097062;28;20116;-84
2022/01/04 02:18:58;;;;;;;1.75;0.90;;;10.80;99.90;;;;;;5097165;28;20027;-84
2022/01/04 02:21:24;;;;;;;3.17;0.50;;;10.90;99.90;;;;;;5115289;28;20031;-84
2022/01/04 02:23:49;;;;;;;1.17;0.60;;;10.80;99.90;;;;;;5093007;28;20400;-84
2022/01/04 02:26:15;;;;;;;2.03;0.65;;;10.90;99.90;;;;;;5093768;28;20028;-83
2022/01/04 02:28:42;;;;;;;2.13;0.70;;;10.90;99.90;;;;;;5093220;28;20077;-84
2022/01/04 02:31:07;;;;;;;3.63;0.85;;;10.90;99.90;;;;;;5093500;28;20107;-84
2022/01/04 02:33:33;;;;;;;1.85;0.80;;;10.90;99.90;;;;;;5093135;28;20055;-83
2022/01/04 02:35:59;;;;;;;1.90;0.52;;;10.80;99.90;;;;;;5093511;28;20085;-84
2022/01/04 02:38:24;;;;;;;2.47;0.80;;;10.90;99.90;;;;;;5093336;28;20031;-83
2022/01/04 02:40:50;;;;;;;1.77;0.65;;;10.90;99.90;;;;;;5093148;28;20124;-84
2022/01/04 02:43:15;;;;;;;1.75;0.85;;;10.90;99.90;;;;;;5094491;28;20391;-83
2022/01/04 02:45:41;;;;;;;1.75;0.75;;;10.90;99.90;;;;;;5093092;28;20053;-83
2022/01/04 02:48:07;;;;;;;1.85;0.95;;;10.80;99.90;;;;;;5093373;28;20054;-84
2022/01/04 02:50:32;;;;;;;1.45;1.10;;;10.80;99.90;;;;;;5092796;28;20024;-84
2022/01/04 02:52:58;;;;;;;2.50;1.00;;;10.90;99.90;;;;;;5094371;28;20405;-84
2022/01/04 02:55:24;;;;;;;2.28;0.70;;;10.90;99.90;;;;;;5094229;28;20031;-84
2022/01/04 02:57:49;;;;;;;4.50;1.05;;;10.90;99.90;;;;;;5092772;28;20054;-83
2022/01/04 03:00:16;;;;;;;3.03;0.95;;;10.90;99.90;;;;;;5093475;28;20373;-83
2022/01/04 03:02:42;;;;;;;1.67;0.80;;;10.90;99.90;;;;;;5093804;28;20070;-83
2022/01/04 03:05:09;;;;;;;1.60;0.88;;;10.80;99.90;;;;;;5093350;28;20420;-83
2022/01/04 03:07:35;;;;;;;2.25;0.80;;;10.80;99.90;;;;;;5092900;28;20059;-83
2022/01/04 03:10:02;;;;;;;2.15;0.88;;;10.80;99.90;;;;;;5094131;28;20520;-84
2022/01/04 03:12:28;;;;;;;1.75;0.75;;;10.80;99.90;;;;;;5092910;28;20024;-84
2022/01/04 03:14:53;;;;;;;1.63;0.80;;;10.80;99.90;;;;;;5092509;28;20077;-84
2022/01/04 03:17:19;;;;;;;2.90;1.02;;;10.80;99.90;;;;;;5092886;28;20429;-84
2022/01/04 03:19:44;;;;;;;2.28;1.02;;;10.80;99.90;;;;;;5092369;28;20028;-83
2022/01/04 03:22:10;;;;;;;1.45;0.90;;;10.80;99.90;;;;;;5093158;28;20061;-83
2022/01/04 03:24:36;;;;;;;2.47;1.00;;;10.70;99.90;;;;;;5110817;28;20123;-83
2022/01/04 03:27:01;;;;;;;1.67;0.80;;;10.70;99.90;;;;;;5096669;28;20057;-84
2022/01/04 03:29:27;;;;;;;1.08;0.80;;;10.70;99.90;;;;;;5096354;28;20076;-84
2022/01/04 03:31:54;;;;;;;3.03;1.05;;;10.70;99.90;;;;;;5096051;28;20023;-84
2022/01/04 03:34:20;;;;;;;3.63;0.95;;;10.70;99.90;;;;;;5096456;28;20032;-83
2022/01/04 03:36:46;;;;;;;3.60;0.85;;;10.70;99.90;;;;;;5095826;28;20383;-84
2022/01/04 03:39:12;;;;;;;2.28;0.85;;;10.60;99.90;;;;;;5114150;28;20050;-84
2022/01/04 03:41:40;;;;;;;2.70;1.00;;;10.70;99.90;;;;;;5113822;28;20050;-83
2022/01/04 03:44:16;;;;;;;1.08;0.73;;;10.70;99.90;;;;;;5095663;28;20028;-84
2022/01/04 03:46:42;;;;;;;2.97;0.80;;;10.60;99.90;;;;;;5095741;28;20036;-83
2022/01/04 03:49:08;;;;;;;2.88;0.88;;;10.70;99.90;;;;;;5096585;28;20023;-84
2022/01/04 03:51:33;;;;;;;2.20;0.95;;;10.60;99.90;;;;;;5113802;28;20032;-83
2022/01/04 03:53:59;;;;;;;1.92;1.00;;;10.60;99.90;;;;;;5095978;28;20027;-83
2022/01/04 03:56:24;;;;;;;2.95;0.80;;;10.60;99.90;;;;;;5095592;28;20027;-84
2022/01/04 03:58:50;;;;;;;0.88;0.60;;;10.60;99.90;;;;;;5095563;28;20032;-83
2022/01/04 04:01:16;;;;;;;1.60;0.80;;;10.60;99.90;;;;;;5096063;28;20024;-84
2022/01/04 04:03:41;;;;;;;3.78;0.88;;;10.60;99.90;;;;;;5095674;28;20031;-83
2022/01/04 04:06:07;;;;;;;1.60;1.00;;;10.60;99.90;;;;;;5095924;28;20084;-84
2022/01/04 04:08:33;;;;;;;1.80;1.00;;;10.60;99.90;;;;;;5113400;28;20055;-82
2022/01/04 04:10:58;;;;;;;2.70;0.60;;;10.60;99.90;;;;;;5117496;28;20430;-84
2022/01/04 04:13:24;;;;;;;2.35;1.15;;;10.60;99.90;;;;;;5099745;28;20053;-84
2022/01/04 04:15:50;;;;;;;1.05;0.60;;;10.60;99.90;;;;;;5117152;28;20047;-83
2022/01/04 04:18:17;;;;;;;2.15;1.00;;;10.60;99.90;;;;;;5099495;28;20032;-84
2022/01/04 04:20:43;;;;;;;1.58;0.88;;;10.60;99.90;;;;;;5098872;28;20456;-84
2022/01/04 04:23:08;;;;;;;0.75;0.52;;;10.60;99.90;;;;;;5117278;28;20044;-84
2022/01/04 04:25:34;;;;;;;3.28;0.60;;;10.70;99.90;;;;;;5098832;28;20080;-82
2022/01/04 04:28:00;;;;;;;3.38;0.65;;;10.60;99.90;;;;;;5099385;28;20163;-84
2022/01/04 04:30:26;;;;;;;2.25;0.70;;;10.70;99.90;;;;;;5099072;28;20020;-84
2022/01/04 04:32:53;;;;;;;2.08;0.60;;;10.70;99.90;;;;;;5098883;28;20067;-84
2022/01/04 04:35:18;;;;;;;2.05;0.60;;;10.70;99.90;;;;;;5099198;28;20063;-84
2022/01/04 04:37:44;;;;;;;1.30;0.63;;;10.70;99.90;;;;;;5116448;28;20030;-83
2022/01/04 04:40:11;;;;;;;0.90;0.52;;;10.70;99.90;;;;;;5099223;28;20034;-84
2022/01/04 04:42:37;;;;;;;3.05;0.60;;;10.70;99.90;;;;;;5098575;28;20027;-83
2022/01/04 04:45:04;;;;;;;0.80;0.50;;;10.70;99.90;;;;;;5098953;28;20119;-84
2022/01/04 04:47:29;;;;;;;1.35;0.50;;;10.70;99.90;;;;;;5116943;28;20050;-84
2022/01/04 04:49:55;;;;;;;2.10;0.63;;;10.70;99.90;;;;;;5098560;28;20468;-84
2022/01/04 04:52:21;;;;;;;0.65;0.52;;;10.70;99.90;;;;;;5098966;28;20126;-83
2022/01/04 04:54:47;;;;;;;0.80;0.60;;;10.70;99.90;;;;;;5098474;28;20082;-84
2022/01/04 04:57:13;;;;;;;0.82;0.57;;;10.70;99.90;;;;;;5117027;28;20107;-84
2022/01/04 04:59:39;;;;;;;1.88;0.50;;;10.70;99.90;;;;;;5116384;28;20098;-84
2022/01/04 05:02:07;;;;;;;1.13;0.60;;;10.70;99.90;;;;;;5098620;28;20059;-84
2022/01/04 05:04:34;;;;;;;2.17;0.60;;;10.70;99.90;;;;;;5098586;28;20024;-84
2022/01/04 05:07:00;;;;;;;1.83;0.40;;;10.70;99.90;;;;;;5097994;28;20392;-84
2022/01/04 05:09:25;;;;;;;2.58;0.52;;;10.70;99.90;;;;;;5116359;28;20032;-84
2022/01/04 05:11:51;;;;;;;1.55;0.50;;;10.70;99.90;;;;;;5098032;28;20031;-83
2022/01/04 05:14:17;;;;;;;2.70;0.50;;;10.70;99.90;;;;;;5116970;28;20073;-84
2022/01/04 05:16:43;;;;;;;1.67;0.50;;;10.70;99.90;;;;;;5097852;28;20047;-84
2022/01/04 05:19:08;;;;;;;1.17;0.60;;;10.70;99.90;;;;;;5098325;28;20453;-84
2022/01/04 05:21:34;;;;;;;0.98;0.40;;;10.70;99.90;;;;;;5097174;28;20023;-84
2022/01/04 05:23:59;;;;;;;1.83;0.63;;;10.70;99.90;;;;;;5097507;28;20134;-84
2022/01/04 05:26:25;;;;;;;2.35;0.60;;;10.70;99.90;;;;;;5098053;28;20031;-84
2022/01/04 05:28:51;;;;;;;1.45;0.40;;;10.70;99.90;;;;;;5115652;28;20509;-84
2022/01/04 05:31:16;;;;;;;2.13;0.50;;;10.70;99.90;;;;;;5097925;28;20503;-84
2022/01/04 05:33:42;;;;;;;0.80;0.50;;;10.80;99.90;;;;;;5097220;28;20024;-84
2022/01/04 05:36:08;;;;;;;0.88;0.43;;;10.80;99.90;;;;;;5116020;28;20035;-84
2022/01/04 05:38:33;;;;;;;2.35;0.63;;;10.80;99.90;;;;;;5098208;28;20119;-84
2022/01/04 05:40:59;;;;;;;1.02;0.55;;;10.80;99.90;;;;;;5115651;28;20072;-84
2022/01/04 05:43:25;;;;;;;0.43;0.40;;;10.80;99.90;;;;;;5115990;28;20043;-84
2022/01/04 05:45:51;;;;;;;1.52;0.50;;;10.80;99.90;;;;;;5097549;28;20463;-84
2022/01/04 05:48:21;;;;;;;0.70;0.63;;;10.80;99.90;;;;;;5097563;28;20023;-84
2022/01/04 05:50:49;;;;;;;0.85;0.50;;;10.80;99.90;;;;;;5115124;28;20453;-84
2022/01/04 05:53:15;;;;;;;0.40;0.40;;;10.90;99.90;;;;;;5097799;28;20115;-84
2022/01/04 05:55:41;;;;;;;1.85;0.80;;;10.80;99.90;;;;;;5097211;28;20083;-83
2022/01/04 05:58:06;;;;;;;1.55;0.50;;;10.80;99.90;;;;;;5098121;28;20472;-84
2022/01/04 06:00:32;;;;;;;1.38;0.60;;;10.80;99.90;;;;;;5097847;28;20020;-84
2022/01/04 06:03:01;;;;;;;1.25;0.60;;;10.80;99.90;;;;;;5097377;28;20357;-84
2022/01/04 06:05:27;;;;;;;0.93;0.52;;;10.90;99.90;;;;;;5097631;28;20069;-85
2022/01/04 06:07:53;;;;;;;1.00;0.50;;;10.90;99.90;;;;;;5097133;28;20076;-84
2022/01/04 06:10:19;;;;;;;1.25;0.50;;;10.90;99.90;;;;;;5097215;28;20027;-84
2022/01/04 06:15:14;;;;;;;2.35;0.65;;;10.90;99.90;;;;;;5115176;28;20046;-84
2022/01/04 06:17:47;;;;;;;1.02;0.55;;;10.90;99.90;;;;;;5097161;28;20042;-84
2022/01/04 06:20:15;;;;;;;3.20;0.70;;;10.90;99.90;;;;;;5115457;28;20058;-85
2022/01/04 06:22:42;;;;;;;1.85;0.80;;;11.00;99.90;;;;;;5096769;28;20520;-83
2022/01/04 06:25:14;;;;;;;1.88;0.75;;;11.00;99.90;;;;;;5115148;28;20062;-84
2022/01/04 06:27:44;;;;;;;1.50;0.63;;;11.00;99.90;;;;;;5097107;28;20070;-84
2022/01/04 06:30:13;;;;;;;1.52;0.60;;;11.00;99.90;;;;;;5115059;28;20032;-84
2022/01/04 06:32:41;;;;;;;0.88;0.60;;;11.10;99.90;;;;;;5114826;28;20024;-84
2022/01/04 06:35:06;;;;;;;0.75;0.43;;;11.10;99.90;;;;;;5096846;28;20414;-84
2022/01/04 06:37:32;;;;;;;3.05;0.50;;;11.10;99.90;;;;;;5096939;28;20023;-82
2022/01/04 06:39:58;;;;;;;2.20;0.77;;;11.10;99.90;;;;;;5098069;28;20023;-84
2022/01/04 06:42:24;;;;;;;2.58;0.63;;;11.10;99.90;;;;;;5096704;28;20031;-84
2022/01/04 06:44:49;;;;;;;0.95;0.57;;;11.10;99.90;;;;;;5114483;28;20031;-84
2022/01/04 06:47:15;;;;;;;1.15;0.70;;;11.10;99.90;;;;;;5096723;28;20522;-85
2022/01/04 06:49:41;;;;;;;1.05;0.60;;;11.10;99.90;;;;;;5096732;28;20032;-83
2022/01/04 06:52:08;;;;;;;1.75;1.08;;;11.10;99.90;;;;;;5097357;28;20046;-83
2022/01/04 06:54:33;;;;;;;2.25;0.68;;;11.20;99.90;;;;;;5098216;28;20480;-83
2022/01/04 06:56:59;;;;;;;1.48;0.82;;;11.20;99.90;;;;;;5095899;28;20039;-83
2022/01/04 06:59:24;;;;;;;1.55;0.70;;;11.20;99.90;;;;;;5096466;28;20118;-83
2022/01/04 07:01:50;;;;;;;0.73;0.50;;;11.20;99.90;;;;;;5096057;28;20035;-83
2022/01/04 07:04:16;;;;;;;1.80;0.65;;;11.20;99.90;;;;;;5096972;28;20041;-83
2022/01/04 07:06:41;;;;;;;2.58;0.68;;;11.20;99.90;;;;;;5096836;28;20035;-83
2022/01/04 07:09:08;;;;;;;1.15;0.60;;;11.20;99.90;;;;;;5096001;28;20385;-83
2022/01/04 07:11:34;;;;;;;1.58;0.57;;;11.20;99.90;;;;;;5096510;28;20164;-84
2022/01/04 07:14:00;;;;;;;2.17;0.55;;;11.20;99.90;;;;;;5095558;28;20020;-84
2022/01/04 07:16:27;;;;;;;1.70;0.57;;;11.30;99.90;;;;;;5096403;28;20093;-84
2022/01/04 07:18:53;;;;;;;1.55;0.60;;;11.30;99.90;;;;;;5095849;28;20028;-84
2022/01/04 07:21:19;;;;;;;1.15;0.73;;;11.30;99.90;;;;;;5114363;28;20073;-84
2022/01/04 07:23:46;;;;;;;0.95;0.50;;;11.30;99.90;;;;;;5092338;28;20086;-83
2022/01/04 07:26:14;;;;;;;1.95;0.50;;;11.30;99.90;;;;;;5093416;28;20031;-84
2022/01/04 07:28:45;;;;;;;2.50;0.63;;;11.40;99.90;;;;;;5093095;28;20032;-85
2022/01/04 07:31:11;;;;;;;1.30;0.50;;;11.30;99.90;;;;;;5094016;28;20081;-84
2022/01/04 07:33:37;;;;;;;0.90;0.70;;;11.40;99.90;;;;;;5092968;28;20024;-84
2022/01/04 07:36:06;;;;;;;2.00;0.57;;;11.30;99.90;;;;;;5093465;28;20025;-84
2022/01/04 07:38:35;;;;;;;1.20;0.60;;;11.40;99.90;;;;;;5094012;28;20028;-84
2022/01/04 07:41:01;;;;;;;1.90;0.57;;;11.40;99.90;;;;;;5092379;28;20377;-84
2022/01/04 07:43:26;;;;;;;2.50;0.60;;;11.40;99.90;;;;;;5092789;28;20032;-84
2022/01/04 07:45:53;;;;;;;0.93;0.45;;;11.40;99.90;;;;;;5095368;28;20039;-84
2022/01/04 07:48:19;;;;;;;1.67;0.45;;;11.40;99.90;;;;;;5096908;28;20035;-85
2022/01/04 07:50:45;;;;;;;1.75;0.90;;;11.40;99.90;;;;;;5096776;28;20028;-84
2022/01/04 07:53:11;;;;;;;1.15;0.50;;;11.40;99.90;;;;;;5097031;28;20051;-83
2022/01/04 07:55:37;;;;;;;1.80;0.68;;;11.40;99.90;;;;;;5096634;28;20051;-83
2022/01/04 07:58:02;;;;;;;1.15;0.60;;;11.50;99.90;;;;;;5095825;28;20597;-83
2022/01/04 08:00:28;;;;;;;3.80;0.50;;;11.40;99.90;;;;;;5096547;28;20028;-83
2022/01/04 08:02:54;;;;;;;1.55;0.60;;;11.50;99.90;;;;;;5096029;28;20032;-84
2022/01/04 08:05:21;;;;;;;1.35;0.60;;;11.50;99.90;;;;;;5097555;28;20101;-85
2022/01/04 08:07:47;;;;;;;0.77;0.50;;;11.50;99.90;;;;;;5096480;28;20030;-83
2022/01/04 08:10:13;;;;;;;1.35;0.60;;;11.50;99.90;;;;;;5096741;28;20371;-85
2022/01/04 08:12:40;;;;;;;1.77;0.50;;;11.50;99.90;;;;;;5096445;28;20032;-84
2022/01/04 08:15:07;;;;;;;1.17;0.55;;;11.50;99.90;;;;;;5095814;28;20044;-84
2022/01/04 08:17:32;;;;;;;1.27;0.60;;;11.50;99.90;;;;;;5096267;28;20076;-84
2022/01/04 08:19:59;;;;;;;1.40;0.60;;;11.50;99.90;;;;;;5095738;28;20020;-83
2022/01/04 08:22:31;;;;;;;1.75;0.70;;;11.50;99.90;;;;;;5096297;28;20066;-83
2022/01/04 08:24:57;;;;;;;1.55;0.57;;;11.50;99.90;;;;;;5117115;28;20040;-83
2022/01/04 08:27:22;;;;;;;2.53;0.82;;;11.50;99.90;;;;;;5099408;28;20028;-84
2022/01/04 08:29:48;;;;;;;0.82;0.52;;;11.50;99.90;;;;;;5099169;28;20088;-81
2022/01/04 08:32:15;;;;;;;1.13;0.40;;;11.50;99.90;;;;;;5099380;28;20023;-84
2022/01/04 08:34:41;;;;;;;2.15;0.80;;;11.50;99.90;;;;;;5099098;28;20019;-85
2022/01/04 08:37:06;;;;;;;1.25;0.60;;;11.60;99.90;;;;;;5098573;28;20028;-85
2022/01/04 08:39:32;;;;;;;1.00;0.40;;;11.50;99.90;;;;;;5099168;28;20028;-84
2022/01/04 08:42:01;;;;;;;2.35;0.52;;;11.60;99.90;;;;;;5116985;28;20055;-84
2022/01/04 08:44:28;;;;;;;2.63;0.60;;;11.60;99.90;;;;;;5099140;28;20465;-84
2022/01/04 08:46:54;;;;;;;1.20;0.57;;;11.60;99.90;;;;;;5098390;28;20035;-84
2022/01/04 08:49:19;;;;;;;5.05;0.60;;;11.60;99.90;;;;;;5117032;28;20024;-84
2022/01/04 08:51:46;;;;;;;1.48;0.60;;;11.60;99.90;;;;;;5098795;28;20460;-83
2022/01/04 08:54:11;;;;;;;1.60;0.47;;;11.60;99.90;;;;;;5098149;28;20028;-86
2022/01/04 08:56:37;;;;;;;0.95;0.40;;;11.60;99.90;;;;;;5098763;28;20028;-84
2022/01/04 08:59:05;;;;;;;0.98;0.60;;;11.60;99.90;;;;;;5116126;28;20024;-84
2022/01/04 09:01:31;;;;;;;4.15;0.60;;;11.60;99.90;;;;;;5098685;28;20062;-84
2022/01/04 09:03:58;;;;;;;1.17;0.50;;;11.70;99.90;;;;;;5098116;28;20461;-84
2022/01/04 09:06:24;;;;;;;2.75;0.75;;;11.70;99.90;;;;;;5098527;28;20062;-84
2022/01/04 09:08:54;;;;;;;1.85;0.40;;;11.70;99.90;;;;;;5098624;28;20019;-84
2022/01/04 09:11:21;;;;;;;2.10;0.73;;;11.70;99.90;;;;;;5098926;28;20038;-84
2022/01/04 09:13:47;;;;;;;2.60;0.75;;;11.60;99.90;;;;;;5098438;28;20042;-84
2022/01/04 09:18:57;;;;;;;0.85;0.50;;;11.70;99.90;;;;;;5115916;28;20077;-85
2022/01/04 09:21:26;;;;;;;2.08;0.50;;;11.70;99.90;;;;;;5098400;28;20047;-84
2022/01/04 09:23:56;;;;;;;2.58;0.60;;;11.70;99.90;;;;;;5097698;28;20086;-82
2022/01/04 09:26:23;;;;;;;1.58;0.47;;;11.70;99.90;;;;;;5098419;28;20027;-84
2022/01/04 09:28:49;;;;;;;1.83;0.60;;;11.70;99.90;;;;;;5098057;28;20154;-84
2022/01/04 09:31:15;;;;;;;2.35;0.60;;;11.70;99.90;;;;;;5097594;28;20053;-84
2022/01/04 09:33:42;;;;;;;2.17;0.65;;;11.70;99.90;;;;;;5098302;28;20024;-84
2022/01/04 09:36:08;;;;;;;1.25;0.77;;;11.70;99.90;;;;;;5097673;28;20578;-84
2022/01/04 09:38:34;;;;;;;1.40;0.50;;;11.70;99.90;;;;;;5097951;28;20030;-84
2022/01/04 09:40:59;;;;;;;1.23;0.60;;;11.70;99.90;;;;;;5097448;28;20020;-83
2022/01/04 09:43:25;;;;;;;0.95;0.55;;;11.80;99.90;;;;;;5098315;28;20443;-83
2022/01/04 09:45:53;;;;;;;4.18;0.80;;;11.80;99.90;;;;;;5097634;28;20036;-83
2022/01/04 09:48:19;;;;;;;2.22;0.95;;;11.70;99.90;;;;;;5097939;28;20020;-83
2022/01/04 09:50:47;;;;;;;2.13;0.63;;;11.80;99.90;;;;;;5115628;28;20460;-83
2022/01/04 09:53:19;;;;;;;2.30;1.13;;;11.80;99.90;;;;;;5097242;28;20076;-82
2022/01/04 09:55:50;;;;;;;1.58;0.60;;;11.80;99.90;;;;;;5115710;28;20122;-83
2022/01/04 09:58:19;;;;;;;3.67;0.80;;;11.80;99.90;;;;;;5115446;28;20071;-83
2022/01/04 10:00:46;;;;;;;3.65;0.90;;;11.80;99.90;;;;;;5097663;28;20073;-82
2022/01/04 10:03:31;;;;;;;0.80;0.52;;;11.80;99.90;;;;;;5115020;28;20043;-82
2022/01/04 10:06:08;;;;;;;0.88;0.57;;;11.80;99.90;;;;;;5097040;28;20499;-82
2022/01/04 10:08:47;;;;;;;1.25;0.70;;;11.80;99.90;;;;;;5096939;28;20464;-83
2022/01/04 10:11:13;;;;;;;3.13;0.60;;;11.90;99.90;;;;;;5096850;28;20049;-83
2022/01/04 10:13:39;;;;;;;2.13;0.65;;;11.90;99.90;;;;;;5097276;28;20385;-83
2022/01/04 10:16:15;;;;;;;1.40;0.68;;;11.80;99.90;;;;;;5096826;28;20040;-82
2022/01/04 10:18:45;;;;;;;0.90;0.50;;;11.80;99.90;;;;;;5097324;28;20027;-82
2022/01/04 10:21:13;;;;;;;1.15;0.50;;;11.80;99.90;;;;;;5114558;28;20104;-82
2022/01/04 10:23:54;;;;;;;3.08;0.60;;;11.80;99.90;;;;;;5093592;28;20043;-82
2022/01/04 10:26:29;;;;;;;1.98;0.70;;;11.80;99.90;;;;;;5093596;28;20488;-83
2022/01/04 10:28:55;;;;;;;2.00;0.82;;;11.80;99.90;;;;;;5093623;28;20028;-84
2022/01/04 10:31:20;;;;;;;1.10;0.50;;;11.80;99.90;;;;;;5093504;28;20039;-84
2022/01/04 10:33:55;;;;;;;2.53;0.77;;;11.90;99.90;;;;;;5094595;28;20386;-83
2022/01/04 10:36:21;;;;;;;1.55;0.60;;;11.80;99.90;;;;;;5093576;28;20081;-84
2022/01/04 10:38:48;;;;;;;1.30;0.60;;;11.90;99.90;;;;;;5093694;28;20024;-83
2022/01/04 10:41:21;;;;;;;3.75;1.48;;;11.90;99.90;;;;;;5093186;28;20086;-82
2022/01/04 10:43:54;;;;;;;1.52;1.00;;;11.80;99.90;;;;;;5093238;28;20028;-82
2022/01/04 10:46:44;;;;;;;1.20;0.60;;;11.90;99.90;;;;;;5092904;28;20036;-83
2022/01/04 10:49:19;;;;;;;2.47;0.80;;;11.80;99.90;;;;;;5092797;28;20056;-83
2022/01/04 10:52:02;;;;;;;0.98;0.75;;;11.90;99.90;;;;;;5093309;28;20111;-84
2022/01/04 10:54:28;;;;;;;3.50;0.93;;;11.90;99.90;;;;;;5093329;28;20083;-85
2022/01/04 10:57:04;;;;;;;2.72;0.60;;;11.90;99.90;;;;;;5093202;28;20028;-85
2022/01/04 10:59:29;;;;;;;1.40;0.93;;;11.90;99.90;;;;;;5093377;28;20031;-85
2022/01/04 11:01:55;;;;;;;3.75;0.90;;;11.90;99.90;;;;;;5094415;28;20024;-85
2022/01/04 11:04:21;;;;;;;1.92;0.82;;;11.80;99.90;;;;;;5093397;28;20028;-84
2022/01/04 11:06:49;;;;;;;3.35;0.80;;;11.80;99.90;;;;;;5094116;28;20069;-84
2022/01/04 11:09:16;;;;;;;2.05;0.88;;;11.80;99.90;;;;;;5093495;28;20024;-83
2022/01/04 11:11:42;;;;;;;1.23;0.85;;;11.90;99.90;;;;;;5092784;28;20062;-83
2022/01/04 11:14:10;;;;;;;2.67;0.80;;;11.90;99.90;;;;;;5092018;28;20028;-83
2022/01/04 11:16:36;;;;;;;1.50;0.70;;;11.90;99.90;;;;;;5092852;28;20036;-83
2022/01/04 11:19:03;;;;;;;1.80;0.90;;;11.90;99.90;;;;;;5093493;28;20519;-83
2022/01/04 11:21:33;;;;;;;3.65;1.60;;;11.90;99.90;;;;;;5098107;28;20024;-83
2022/01/04 11:24:01;;;;;;;3.85;1.10;;;11.90;99.90;;;;;;5096648;28;20125;-81
2022/01/04 11:26:27;;;;;;;1.23;0.63;;;12.00;99.90;;;;;;5097054;28;20028;-84
2022/01/04 11:28:55;;;;;;;1.33;0.82;;;12.00;99.90;;;;;;5097788;28;20032;-85
2022/01/04 11:31:45;;;;;;;1.35;0.75;;;12.00;99.90;;;;;;5096541;28;20503;-86
2022/01/04 11:34:24;;;;;;;1.15;0.70;;;12.00;99.90;;;;;;5096750;28;20137;-85
2022/01/04 11:36:51;;;;;;;2.42;0.90;;;12.10;99.90;;;;;;5097090;28;20039;-84
2022/01/04 11:39:40;;;;;;;2.20;0.85;;;12.10;99.90;;;;;;5096421;28;20055;-85
2022/01/04 11:42:11;;;;;;;2.15;0.75;;;12.20;99.90;;;;;;5085936;28;20032;-85
2022/01/04 11:44:46;;;;;;;1.98;1.10;;;12.20;99.90;;;;;;5098195;28;20028;-85
2022/01/04 11:47:27;;;;;;;1.58;0.77;;;12.20;99.90;;;;;;5097626;28;20046;-83
2022/01/04 11:50:15;;;;;;;2.40;0.77;;;12.30;99.90;;;;;;5096677;28;20024;-83
2022/01/04 11:52:52;;;;;;;7.32;0.95;;;12.30;99.90;;;;;;5096758;28;20028;-84
2022/01/04 11:55:34;;;;;;;5.38;1.17;;;12.30;99.90;;;;;;5097104;28;20042;-84
2022/01/04 11:58:07;;;;;;;3.03;1.00;;;12.30;99.90;;;;;;5096763;28;20157;-84
2022/01/04 12:00:43;;;;;;;1.80;1.05;;;12.40;99.90;;;;;;5096663;28;20032;-84
2022/01/04 12:03:14;;;;;;;1.90;0.75;;;12.40;99.90;;;;;;5096086;28;20033;-83
2022/01/04 12:06:01;;;;;;;2.45;0.95;;;12.40;99.90;;;;;;5096592;28;20062;-84
2022/01/04 12:08:38;;;;;;;2.78;0.80;;;12.40;99.90;;;;;;5096748;28;20448;-83
2022/01/04 12:11:21;;;;;;;1.20;0.90;;;12.40;99.90;;;;;;5095799;28;20055;-84
2022/01/04 12:13:55;;;;;;;2.35;1.00;;;12.40;99.90;;;;;;5095868;28;20035;-84
2022/01/04 12:16:42;;;;;;;2.47;1.00;;;12.40;99.90;;;;;;5095494;28;20277;-85
2022/01/04 12:19:09;;;;;;;2.15;1.15;;;12.40;99.90;;;;;;5095581;28;20056;-84
2022/01/04 12:22:00;;;;;;;3.65;1.13;;;12.30;99.90;;;;;;5095581;28;20027;-85
2022/01/04 12:24:46;;;;;;;1.35;0.85;;;12.30;99.90;;;;;;5095013;28;20078;-84
2022/01/04 12:27:14;;;;;;;2.10;0.95;;;12.40;99.90;;;;;;5095619;28;20106;-85
2022/01/04 12:29:40;;;;;;;3.13;1.00;;;12.40;99.90;;;;;;5097074;28;20415;-84
2022/01/04 12:32:09;;;;;;;1.10;0.80;;;12.40;99.90;;;;;;5095931;28;20039;-84
2022/01/04 12:34:37;;;;;;;2.15;0.88;;;12.40;99.90;;;;;;5095857;28;20074;-85
2022/01/04 12:37:06;;;;;;;2.55;0.98;;;12.40;99.90;;;;;;5095115;28;20036;-84
2022/01/04 12:39:41;;;;;;;2.15;0.88;;;12.40;99.90;;;;;;5095630;28;20536;-85
2022/01/04 12:42:09;;;;;;;2.30;0.75;;;12.30;99.90;;;;;;5096020;28;20046;-85
2022/01/04 12:44:36;;;;;;;1.50;0.90;;;12.30;99.90;;;;;;5095877;28;20032;-85
2022/01/04 12:47:04;;;;;;;0.47;0.20;;;12.20;99.90;;;;;;5095514;28;20500;-85
2022/01/04 12:49:31;;;;;;;1.95;0.20;;;11.90;99.90;;;;;;5095709;28;20071;-85
2022/01/04 12:52:00;;;;;;;0.20;0.10;;;11.60;99.90;;;;;;5095624;28;20024;-85
2022/01/04 12:54:32;;;;;;;1.27;0.28;;;11.30;99.90;;;;;;5094912;28;20032;-85
2022/01/04 12:57:01;;;;;;;0.85;0.13;;;11.10;99.90;;;;;;5096393;28;20036;-85
2022/01/04 12:59:26;;;;;;;1.00;0.10;;;10.90;99.90;;;;;;5095978;28;20112;-85
2022/01/04 13:02:00;;;;;;;1.13;0.10;;;10.60;99.90;;;;;;5096255;28;20047;-85
2022/01/04 13:04:35;;;;;;;0.63;0.10;;;10.30;99.90;;;;;;5095159;28;20385;-85